Time;durP1;ratioP1;P1;durP2;ratioP2;P2;SDS_P1;SDS_P2;PMS_P1;PMS_P2;Temp;Humidity;BMP_temperature;BMP_pressure;BME280_temperature;BME280_humidity;BME280_pressure;Samples;Min_cycle;Max_cycle;Signal;HPM_P1;HPM_P2
2022/02/26 00:01:40;;;;;;;2.90;1.53;;;22.20;55.10;;;;;;5093427;28;20431;-80
2022/02/26 00:04:08;;;;;;;2.00;1.40;;;22.20;55.10;;;;;;5082722;28;20423;-80
2022/02/26 00:06:42;;;;;;;1.93;1.40;;;22.20;55.10;;;;;;5082942;28;20515;-80
2022/02/26 00:09:12;;;;;;;1.60;1.30;;;22.20;55.10;;;;;;5117950;28;20384;-80
2022/02/26 00:11:39;;;;;;;2.37;2.17;;;22.10;55.00;;;;;;5113813;28;20426;-80
2022/02/26 00:14:05;;;;;;;2.17;1.50;;;22.10;55.00;;;;;;5091988;28;20432;-80
2022/02/26 00:16:33;;;;;;;2.57;1.57;;;22.10;55.00;;;;;;5116965;28;20445;-80
2022/02/26 00:19:11;;;;;;;1.87;1.40;;;22.10;55.00;;;;;;5082527;28;20466;-80
2022/02/26 00:21:37;;;;;;;1.57;1.33;;;22.10;55.00;;;;;;5116636;28;20395;-80
2022/02/26 00:24:12;;;;;;;1.57;1.17;;;22.10;55.00;;;;;;5116177;28;20414;-80
2022/02/26 00:26:40;;;;;;;2.30;1.50;;;22.10;55.00;;;;;;5116292;28;20419;-80
2022/02/26 00:29:21;;;;;;;1.93;1.43;;;22.10;55.00;;;;;;5099273;28;20412;-80
2022/02/26 00:31:48;;;;;;;2.10;1.40;;;22.10;55.00;;;;;;5102562;28;20395;-80
2022/02/26 00:34:39;;;;;;;1.63;1.30;;;22.10;55.10;;;;;;5095970;28;20408;-80
2022/02/26 00:37:05;;;;;;;2.30;1.40;;;22.10;55.10;;;;;;5105700;28;20443;-80
2022/02/26 00:39:32;;;;;;;1.83;1.00;;;22.10;55.10;;;;;;5116457;28;20427;-80
2022/02/26 00:41:58;;;;;;;2.37;1.77;;;22.10;55.10;;;;;;5098871;28;20419;-80
2022/02/26 00:44:27;;;;;;;2.00;1.50;;;22.10;55.10;;;;;;5099583;28;20441;-80
2022/02/26 00:46:54;;;;;;;1.63;1.20;;;22.10;55.10;;;;;;5099326;28;20459;-80
2022/02/26 00:49:46;;;;;;;1.77;1.47;;;22.10;55.10;;;;;;5098646;28;20467;-80
2022/02/26 00:52:32;;;;;;;1.90;1.30;;;22.10;55.10;;;;;;5113762;28;20423;-79
2022/02/26 00:55:02;;;;;;;2.03;1.33;;;22.10;55.10;;;;;;5116957;28;20387;-80
2022/02/26 00:57:29;;;;;;;2.47;1.70;;;22.10;55.10;;;;;;5098876;28;20477;-80
2022/02/26 00:59:58;;;;;;;1.80;1.27;;;22.10;55.10;;;;;;5082118;28;20404;-80
2022/02/26 01:02:27;;;;;;;2.70;1.50;;;22.10;55.10;;;;;;5081779;28;20420;-80
2022/02/26 01:05:17;;;;;;;1.87;1.30;;;22.10;55.10;;;;;;5115776;28;20505;-80
2022/02/26 01:07:46;;;;;;;1.43;1.00;;;22.00;55.00;;;;;;5095108;28;20412;-80
2022/02/26 01:10:15;;;;;;;3.70;1.40;;;22.00;55.10;;;;;;5098307;28;20430;-80
2022/02/26 01:12:41;;;;;;;1.27;1.17;;;22.00;55.00;;;;;;5116440;28;20412;-80
2022/02/26 01:15:09;;;;;;;2.03;1.20;;;22.00;55.00;;;;;;5099195;28;20412;-80
2022/02/26 01:17:37;;;;;;;1.33;0.97;;;22.00;55.00;;;;;;5081953;28;20455;-80
2022/02/26 01:20:06;;;;;;;1.67;1.57;;;22.00;55.00;;;;;;5116387;28;20422;-80
2022/02/26 01:22:33;;;;;;;2.00;1.40;;;22.00;55.00;;;;;;5057743;28;20407;-80
2022/02/26 01:24:59;;;;;;;1.23;0.90;;;22.00;55.00;;;;;;5079040;28;20411;-80
2022/02/26 01:27:26;;;;;;;1.97;1.20;;;22.00;55.00;;;;;;5100847;28;20426;-80
2022/02/26 01:29:53;;;;;;;1.43;1.10;;;22.00;55.00;;;;;;5120363;28;20399;-80
2022/02/26 01:32:19;;;;;;;1.70;1.20;;;22.00;55.00;;;;;;5120702;28;20430;-79
2022/02/26 01:34:45;;;;;;;2.30;1.50;;;22.00;55.00;;;;;;5102685;28;20396;-80
2022/02/26 01:37:13;;;;;;;2.00;1.30;;;22.00;55.00;;;;;;5106823;28;20463;-79
2022/02/26 01:39:41;;;;;;;1.50;1.20;;;22.00;55.00;;;;;;5082282;28;20438;-80
2022/02/26 01:42:12;;;;;;;1.50;1.00;;;22.00;55.00;;;;;;5116101;28;20973;-80
2022/02/26 01:44:51;;;;;;;2.00;1.40;;;22.00;55.00;;;;;;5098708;28;20908;-80
2022/02/26 01:47:29;;;;;;;1.30;1.10;;;22.00;55.00;;;;;;5104566;28;20506;-80
2022/02/26 01:49:56;;;;;;;1.60;1.07;;;22.00;55.00;;;;;;5101895;28;20905;-80
2022/02/26 01:52:25;;;;;;;1.80;1.17;;;22.00;55.50;;;;;;5120242;28;20463;-80
2022/02/26 01:54:53;;;;;;;1.60;1.40;;;22.00;55.00;;;;;;5101530;28;20429;-80
2022/02/26 01:57:24;;;;;;;1.80;1.23;;;22.00;55.00;;;;;;5086206;28;20459;-79
2022/02/26 02:00:02;;;;;;;1.47;1.17;;;22.00;55.00;;;;;;5085068;28;20432;-79
2022/02/26 02:02:33;;;;;;;2.50;1.53;;;22.00;55.00;;;;;;5120008;28;20395;-80
2022/02/26 02:05:01;;;;;;;2.60;1.20;;;21.90;54.90;;;;;;5101207;28;20438;-80
2022/02/26 02:07:30;;;;;;;2.23;1.50;;;22.00;55.00;;;;;;5119604;28;20388;-79
2022/02/26 02:09:59;;;;;;;1.67;1.13;;;21.90;54.90;;;;;;5102495;28;20396;-80
2022/02/26 02:12:29;;;;;;;2.13;1.70;;;21.90;54.90;;;;;;5119806;28;20440;-79
2022/02/26 02:15:01;;;;;;;1.63;1.23;;;21.90;54.90;;;;;;5101425;28;20414;-80
2022/02/26 02:17:30;;;;;;;2.40;1.57;;;21.90;54.90;;;;;;5101174;28;20515;-79
2022/02/26 02:20:09;;;;;;;1.70;1.13;;;21.90;54.90;;;;;;5119769;28;20411;-80
2022/02/26 02:22:42;;;;;;;2.10;1.27;;;21.90;54.90;;;;;;5074760;28;20425;-79
2022/02/26 02:25:09;;;;;;;1.60;1.03;;;21.90;54.90;;;;;;5117790;28;20420;-79
2022/02/26 02:27:42;;;;;;;1.63;1.13;;;21.90;55.00;;;;;;5118420;28;20471;-79
2022/02/26 02:30:27;;;;;;;1.47;1.10;;;21.90;55.00;;;;;;5118862;28;20400;-79
2022/02/26 02:32:55;;;;;;;2.07;1.50;;;21.90;54.90;;;;;;5119283;28;20391;-79
2022/02/26 02:35:46;;;;;;;1.70;1.53;;;21.90;55.00;;;;;;5100512;28;20427;-79
2022/02/26 02:38:16;;;;;;;1.60;1.10;;;21.90;55.00;;;;;;5117663;28;20798;-79
2022/02/26 02:40:46;;;;;;;2.83;1.37;;;21.90;55.00;;;;;;5118926;28;20429;-79
2022/02/26 02:43:12;;;;;;;2.60;1.60;;;21.90;55.00;;;;;;5101511;28;20400;-79
2022/02/26 02:45:39;;;;;;;1.90;1.23;;;21.90;55.00;;;;;;5101290;28;20416;-79
2022/02/26 02:51:29;;;;;;;1.50;1.10;;;21.90;55.00;;;;;;5118625;28;20398;-79
2022/02/26 02:53:56;;;;;;;2.07;1.10;;;21.80;54.90;;;;;;5101558;28;20481;-80
2022/02/26 02:56:23;;;;;;;1.57;1.03;;;21.90;55.00;;;;;;5101470;28;20420;-80
2022/02/26 02:58:57;;;;;;;1.23;1.10;;;21.80;54.90;;;;;;5100766;28;20455;-79
2022/02/26 03:01:28;;;;;;;2.20;1.50;;;21.80;54.90;;;;;;5117500;28;20404;-79
2022/02/26 03:04:03;;;;;;;1.60;1.07;;;21.80;54.90;;;;;;5118250;28;20400;-79
2022/02/26 03:06:31;;;;;;;1.93;1.03;;;21.80;54.90;;;;;;5118375;28;20402;-80
2022/02/26 03:09:04;;;;;;;1.93;1.03;;;21.80;54.90;;;;;;5117517;28;20415;-79
2022/02/26 03:11:31;;;;;;;2.23;1.63;;;21.80;54.90;;;;;;5118444;28;20450;-79
2022/02/26 03:14:00;;;;;;;1.73;1.37;;;21.80;54.90;;;;;;5094110;28;20435;-79
2022/02/26 03:16:29;;;;;;;2.00;1.30;;;21.90;55.00;;;;;;5079185;28;20405;-79
2022/02/26 03:18:55;;;;;;;1.90;1.27;;;21.80;54.90;;;;;;5116807;28;20885;-79
2022/02/26 03:21:26;;;;;;;1.77;1.40;;;21.80;54.80;;;;;;5101082;28;20423;-79
2022/02/26 03:23:58;;;;;;;1.43;1.20;;;21.80;54.80;;;;;;5083518;28;20404;-80
2022/02/26 03:26:25;;;;;;;1.60;1.00;;;21.80;54.90;;;;;;5116603;28;20415;-79
2022/02/26 03:28:51;;;;;;;1.37;0.90;;;21.80;54.80;;;;;;5117271;28;20416;-79
2022/02/26 03:31:21;;;;;;;1.10;0.90;;;21.80;54.80;;;;;;5112700;28;20446;-79
2022/02/26 03:33:49;;;;;;;1.83;1.20;;;21.80;54.80;;;;;;5118056;28;20804;-79
2022/02/26 03:36:21;;;;;;;1.30;1.00;;;21.80;54.80;;;;;;5117822;28;20425;-79
2022/02/26 03:38:47;;;;;;;2.30;1.10;;;21.80;54.80;;;;;;5100694;28;20473;-79
2022/02/26 03:41:14;;;;;;;2.23;1.33;;;21.80;54.80;;;;;;5117396;28;20415;-79
2022/02/26 03:43:49;;;;;;;2.07;1.17;;;21.80;54.90;;;;;;5116896;28;20488;-80
2022/02/26 03:46:20;;;;;;;1.30;1.00;;;21.80;54.80;;;;;;5111772;28;20412;-79
2022/02/26 03:48:52;;;;;;;1.63;1.10;;;21.80;54.80;;;;;;5115373;28;20458;-80
2022/02/26 03:51:21;;;;;;;1.23;1.00;;;21.80;54.80;;;;;;5082672;28;20420;-80
2022/02/26 03:53:56;;;;;;;1.67;1.10;;;21.80;54.80;;;;;;5117504;28;20395;-79
2022/02/26 03:56:27;;;;;;;1.43;1.10;;;21.80;54.80;;;;;;5116951;28;20449;-79
2022/02/26 03:58:58;;;;;;;1.60;1.40;;;21.80;54.80;;;;;;5110606;28;20459;-79
2022/02/26 04:01:27;;;;;;;2.13;1.00;;;21.80;54.80;;;;;;5111714;28;20507;-79
2022/02/26 04:03:53;;;;;;;1.43;1.00;;;21.80;54.80;;;;;;5098283;28;20412;-79
2022/02/26 04:06:19;;;;;;;1.20;0.80;;;21.80;54.80;;;;;;5099053;28;20441;-80
2022/02/26 04:08:48;;;;;;;1.23;1.00;;;21.80;54.80;;;;;;5082944;28;20412;-79
2022/02/26 04:11:14;;;;;;;1.30;1.07;;;21.80;54.80;;;;;;5116932;28;20432;-80
2022/02/26 04:13:42;;;;;;;1.57;1.10;;;21.80;54.80;;;;;;5099334;28;20476;-80
2022/02/26 04:16:11;;;;;;;1.20;0.90;;;21.80;54.80;;;;;;5082102;28;20422;-79
2022/02/26 04:18:40;;;;;;;1.20;0.90;;;21.80;54.80;;;;;;5099220;28;20459;-79
2022/02/26 04:21:07;;;;;;;1.20;1.00;;;21.70;54.70;;;;;;5117038;28;20471;-80
2022/02/26 04:23:35;;;;;;;1.30;0.93;;;21.80;54.80;;;;;;5115477;28;20400;-79
2022/02/26 04:26:02;;;;;;;1.40;1.07;;;21.70;54.70;;;;;;5099075;28;20416;-79
2022/02/26 04:28:29;;;;;;;2.10;1.00;;;21.70;54.70;;;;;;5116369;28;20416;-80
2022/02/26 04:30:57;;;;;;;1.40;1.00;;;21.70;54.70;;;;;;5116924;28;20408;-79
2022/02/26 04:33:29;;;;;;;1.57;1.23;;;21.70;54.70;;;;;;5116863;28;20454;-79
2022/02/26 04:35:58;;;;;;;1.50;1.20;;;21.70;54.70;;;;;;5094380;28;20431;-79
2022/02/26 04:38:29;;;;;;;1.70;1.20;;;21.70;54.70;;;;;;5097525;28;20463;-79
2022/02/26 04:40:58;;;;;;;1.57;1.17;;;21.70;54.70;;;;;;5099450;28;20499;-79
2022/02/26 04:43:25;;;;;;;1.50;1.13;;;21.70;54.70;;;;;;5116443;28;20400;-80
2022/02/26 04:45:55;;;;;;;3.10;1.20;;;21.70;54.70;;;;;;5099223;28;20415;-79
2022/02/26 04:48:24;;;;;;;1.70;1.10;;;21.70;54.70;;;;;;5115835;28;20469;-79
2022/02/26 04:50:54;;;;;;;1.20;0.90;;;21.70;54.70;;;;;;5116102;28;20424;-79
2022/02/26 04:53:24;;;;;;;1.20;1.10;;;21.70;54.70;;;;;;5082275;28;20428;-79
2022/02/26 04:55:52;;;;;;;1.57;1.13;;;21.70;54.70;;;;;;5081319;28;20459;-79
2022/02/26 04:58:19;;;;;;;1.70;1.10;;;21.70;54.70;;;;;;5082172;28;20523;-79
2022/02/26 05:00:48;;;;;;;1.90;1.07;;;21.70;54.70;;;;;;5101049;28;20562;-79
2022/02/26 05:03:20;;;;;;;1.50;1.20;;;21.70;54.70;;;;;;5119862;28;20421;-79
2022/02/26 05:05:49;;;;;;;1.83;1.03;;;21.70;54.70;;;;;;5123073;28;20398;-79
2022/02/26 05:08:16;;;;;;;2.53;1.33;;;21.70;54.70;;;;;;5122219;28;20435;-79
2022/02/26 05:10:43;;;;;;;1.40;1.10;;;21.70;54.70;;;;;;5089805;28;20427;-79
2022/02/26 05:13:09;;;;;;;1.83;0.83;;;21.70;54.70;;;;;;5105380;28;20426;-79
2022/02/26 05:15:35;;;;;;;1.30;1.00;;;21.70;54.70;;;;;;5105212;28;20458;-80
2022/02/26 05:18:06;;;;;;;1.77;0.80;;;21.70;54.70;;;;;;5123324;28;20465;-79
2022/02/26 05:20:35;;;;;;;2.03;1.20;;;21.70;54.70;;;;;;5089334;28;20427;-79
2022/02/26 05:23:08;;;;;;;1.50;1.10;;;21.60;54.60;;;;;;5123182;28;20399;-80
2022/02/26 05:25:38;;;;;;;1.30;1.00;;;21.60;54.60;;;;;;5122901;28;20392;-80
2022/02/26 05:28:06;;;;;;;1.10;0.77;;;21.70;54.70;;;;;;5105079;28;20465;-80
2022/02/26 05:30:36;;;;;;;1.77;0.90;;;21.60;54.60;;;;;;5120493;28;20883;-80
2022/02/26 05:33:07;;;;;;;1.43;1.00;;;21.60;54.70;;;;;;5122218;28;20403;-80
2022/02/26 05:35:36;;;;;;;1.60;1.00;;;21.60;54.60;;;;;;5104443;28;20423;-80
2022/02/26 05:38:03;;;;;;;2.60;0.90;;;21.60;54.60;;;;;;5120069;28;20514;-80
2022/02/26 05:40:31;;;;;;;1.50;0.93;;;21.70;54.70;;;;;;5106963;28;20435;-79
2022/02/26 05:42:57;;;;;;;1.20;1.00;;;21.70;54.70;;;;;;5081264;28;20424;-79
2022/02/26 05:45:24;;;;;;;1.30;0.80;;;21.60;54.70;;;;;;5118215;28;20397;-79
2022/02/26 05:47:51;;;;;;;1.20;0.97;;;21.60;54.60;;;;;;5099304;28;20455;-79
2022/02/26 05:50:22;;;;;;;1.47;0.90;;;21.60;54.70;;;;;;5118925;28;20488;-79
2022/02/26 05:52:53;;;;;;;1.00;0.83;;;21.60;54.70;;;;;;5121363;28;20404;-79
2022/02/26 05:55:22;;;;;;;1.37;0.90;;;21.70;54.70;;;;;;5098766;28;20525;-79
2022/02/26 05:57:53;;;;;;;1.47;0.97;;;21.60;54.70;;;;;;5121461;28;20478;-79
2022/02/26 06:00:27;;;;;;;1.23;0.93;;;21.60;54.70;;;;;;5117450;28;20927;-79
2022/02/26 06:02:54;;;;;;;1.20;1.00;;;21.60;54.70;;;;;;5104293;28;20418;-79
2022/02/26 06:05:23;;;;;;;1.40;1.10;;;21.60;54.70;;;;;;5121252;28;20391;-79
2022/02/26 06:07:56;;;;;;;1.53;1.07;;;21.60;54.70;;;;;;5122474;28;20483;-79
2022/02/26 06:10:27;;;;;;;1.37;0.87;;;21.70;54.70;;;;;;5106501;28;20446;-79
2022/02/26 06:12:58;;;;;;;1.37;0.90;;;21.60;55.30;;;;;;5117904;28;20414;-79
2022/02/26 06:15:25;;;;;;;1.60;0.83;;;21.60;54.70;;;;;;5101591;28;20404;-79
2022/02/26 06:17:52;;;;;;;1.30;1.10;;;21.70;54.70;;;;;;5101107;28;20526;-79
2022/02/26 06:20:21;;;;;;;3.00;2.80;;;21.60;54.70;;;;;;5084082;28;20428;-79
2022/02/26 06:22:51;;;;;;;1.70;0.97;;;21.60;54.70;;;;;;5101552;28;20418;-79
2022/02/26 06:25:21;;;;;;;1.53;1.13;;;21.60;54.70;;;;;;5100422;28;20392;-79
2022/02/26 06:27:47;;;;;;;1.10;0.90;;;21.70;54.70;;;;;;5099454;28;20403;-79
2022/02/26 06:30:23;;;;;;;1.40;1.00;;;21.70;54.70;;;;;;5090794;28;20455;-79
2022/02/26 06:32:50;;;;;;;1.20;0.97;;;21.60;54.60;;;;;;5098219;28;20447;-79
2022/02/26 06:35:16;;;;;;;1.30;0.80;;;21.60;54.60;;;;;;5097249;28;20424;-79
2022/02/26 06:37:44;;;;;;;1.30;1.00;;;21.70;54.70;;;;;;5100200;28;20455;-79
2022/02/26 06:40:13;;;;;;;1.40;1.00;;;21.70;54.70;;;;;;5117782;28;20182;-79
2022/02/26 06:42:42;;;;;;;1.53;0.90;;;21.70;54.70;;;;;;5068844;28;20421;-79
2022/02/26 06:45:11;;;;;;;1.23;1.00;;;21.70;54.70;;;;;;5102976;28;20420;-79
2022/02/26 06:47:39;;;;;;;1.33;0.90;;;21.70;54.70;;;;;;5098875;28;20423;-78
2022/02/26 06:50:09;;;;;;;0.97;0.77;;;21.70;54.60;;;;;;5100715;28;20431;-79
2022/02/26 06:52:40;;;;;;;1.00;0.80;;;21.70;54.60;;;;;;5100848;28;20483;-79
2022/02/26 06:55:12;;;;;;;1.23;0.90;;;21.70;54.60;;;;;;5099526;28;20419;-78
2022/02/26 06:57:40;;;;;;;1.37;0.87;;;21.70;54.60;;;;;;5064831;28;20531;-79
2022/02/26 07:03:30;;;;;;;2.00;1.13;;;21.70;54.60;;;;;;5105725;28;20399;-79
2022/02/26 07:05:56;;;;;;;1.23;0.90;;;21.60;54.60;;;;;;5084415;28;20416;-79
2022/02/26 07:08:22;;;;;;;2.10;1.10;;;21.60;54.60;;;;;;5359528;22;20499;-79
2022/02/26 07:10:48;;;;;;;1.37;1.00;;;21.60;54.60;;;;;;5091093;28;20419;-79
2022/02/26 07:13:24;;;;;;;1.10;0.90;;;21.70;54.60;;;;;;5084592;28;20182;-79
2022/02/26 07:15:58;;;;;;;0.90;0.80;;;21.70;54.60;;;;;;5083738;28;20764;-79
2022/02/26 07:18:24;;;;;;;0.93;0.70;;;21.70;54.60;;;;;;5098626;28;20491;-79
2022/02/26 07:20:54;;;;;;;1.20;0.87;;;21.60;54.50;;;;;;5084090;28;20441;-79
2022/02/26 07:23:20;;;;;;;1.30;0.90;;;21.70;54.60;;;;;;5080233;28;20422;-79
2022/02/26 07:25:48;;;;;;;2.63;0.80;;;21.60;54.50;;;;;;5100241;28;20452;-79
2022/02/26 07:28:15;;;;;;;1.57;1.27;;;21.70;54.60;;;;;;5085076;28;20436;-79
2022/02/26 07:30:43;;;;;;;1.17;0.93;;;21.70;54.60;;;;;;5087951;28;20443;-79
2022/02/26 07:33:09;;;;;;;1.83;1.00;;;21.70;54.60;;;;;;5098235;28;20420;-79
2022/02/26 07:35:46;;;;;;;1.50;1.30;;;21.70;54.50;;;;;;5097211;28;20449;-78
2022/02/26 07:38:14;;;;;;;1.63;1.30;;;21.70;54.20;;;;;;5103677;28;20440;-80
2022/02/26 07:40:43;;;;;;;1.83;1.53;;;21.70;54.00;;;;;;5083244;28;20519;-80
2022/02/26 07:43:13;;;;;;;1.57;1.10;;;21.70;53.90;;;;;;5094676;28;20408;-80
2022/02/26 07:45:39;;;;;;;2.70;1.50;;;21.70;53.90;;;;;;5082273;28;20433;-80
2022/02/26 07:48:11;;;;;;;1.57;0.97;;;21.70;53.90;;;;;;5094906;28;20409;-80
2022/02/26 07:50:39;;;;;;;1.50;0.90;;;21.60;53.80;;;;;;5092173;28;20431;-80
2022/02/26 07:53:06;;;;;;;1.77;1.20;;;21.60;53.90;;;;;;5096806;28;20400;-80
2022/02/26 07:55:34;;;;;;;1.50;1.40;;;21.60;54.00;;;;;;5099697;28;20419;-85
2022/02/26 07:58:03;;;;;;;1.40;1.10;;;21.60;54.10;;;;;;5098752;28;20693;-83
2022/02/26 08:00:29;;;;;;;1.37;1.03;;;21.60;54.10;;;;;;5092402;28;20400;-79
2022/02/26 08:02:56;;;;;;;1.30;0.87;;;21.60;54.20;;;;;;5081627;28;20439;-80
2022/02/26 08:05:23;;;;;;;1.57;1.03;;;21.60;54.20;;;;;;5117200;28;20400;-79
2022/02/26 08:07:57;;;;;;;1.00;0.80;;;21.60;54.20;;;;;;5118067;28;20408;-79
2022/02/26 08:13:48;;;;;;;1.10;0.70;;;21.60;54.30;;;;;;5118248;28;20375;-79
2022/02/26 08:16:17;;;;;;;1.50;0.93;;;21.60;54.30;;;;;;5099902;28;20407;-79
2022/02/26 08:18:43;;;;;;;1.57;0.93;;;21.60;54.40;;;;;;5099476;28;20475;-80
2022/02/26 08:21:10;;;;;;;1.10;0.90;;;21.60;54.40;;;;;;5083524;28;20475;-79
2022/02/26 08:23:39;;;;;;;1.03;0.83;;;21.60;54.40;;;;;;5099023;28;20408;-80
2022/02/26 08:26:05;;;;;;;1.13;0.83;;;21.60;54.40;;;;;;5099687;28;20404;-80
2022/02/26 08:28:33;;;;;;;1.57;1.00;;;21.60;54.90;;;;;;5082494;28;20479;-80
2022/02/26 08:30:59;;;;;;;1.23;0.90;;;21.60;54.40;;;;;;5098431;28;20419;-79
2022/02/26 08:33:26;;;;;;;1.60;1.00;;;21.60;54.40;;;;;;5098084;28;20449;-80
2022/02/26 08:35:56;;;;;;;1.83;0.90;;;21.70;54.40;;;;;;5099502;28;20450;-79
2022/02/26 08:38:22;;;;;;;3.13;1.13;;;21.60;54.40;;;;;;5006085;28;20458;-81
2022/02/26 08:41:31;;;;;;;1.93;1.40;;;21.60;54.40;;;;;;5054977;28;20452;-80
2022/02/26 08:43:58;;;;;;;5.00;1.70;;;21.60;54.10;;;;;;5039067;28;20410;-79
2022/02/26 08:46:47;;;;;;;2.00;1.27;;;21.60;53.80;;;;;;5041346;28;20426;-79
2022/02/26 08:49:16;;;;;;;3.13;1.17;;;21.60;53.70;;;;;;5037884;28;20415;-80
2022/02/26 08:51:45;;;;;;;2.00;1.30;;;21.60;53.80;;;;;;5055475;28;20406;-79
2022/02/26 08:54:11;;;;;;;1.80;1.20;;;21.60;53.90;;;;;;5036691;28;20391;-81
2022/02/26 08:56:37;;;;;;;1.80;1.00;;;21.60;54.00;;;;;;5054387;28;20434;-80
2022/02/26 08:59:10;;;;;;;2.40;1.30;;;21.60;54.00;;;;;;5054595;28;20538;-79
2022/02/26 09:01:38;;;;;;;1.20;0.90;;;21.60;54.10;;;;;;5036908;28;20438;-79
2022/02/26 09:04:05;;;;;;;1.20;1.00;;;21.60;54.10;;;;;;5022295;28;20462;-79
2022/02/26 09:06:32;;;;;;;1.33;1.00;;;21.60;54.20;;;;;;5038660;28;20889;-78
2022/02/26 09:08:59;;;;;;;1.80;1.07;;;21.60;54.20;;;;;;5076959;28;20400;-80
2022/02/26 09:14:49;;;;;;;1.90;1.10;;;21.60;54.20;;;;;;5116459;28;20442;-80
2022/02/26 09:17:16;;;;;;;1.77;1.20;;;21.60;54.20;;;;;;5116555;28;20443;-80
2022/02/26 09:19:47;;;;;;;1.13;1.00;;;21.60;54.30;;;;;;5075195;28;20420;-80
2022/02/26 09:22:18;;;;;;;2.27;1.00;;;21.60;54.30;;;;;;5097421;28;20412;-80
2022/02/26 09:24:45;;;;;;;2.80;1.40;;;21.60;54.30;;;;;;5083539;28;20488;-79
2022/02/26 09:27:11;;;;;;;1.50;1.07;;;21.70;54.30;;;;;;5088205;28;20423;-80
2022/02/26 09:29:38;;;;;;;2.03;1.17;;;21.70;54.30;;;;;;5115244;28;20419;-81
2022/02/26 09:32:20;;;;;;;1.40;1.00;;;21.60;54.30;;;;;;5097990;28;20400;-79
2022/02/26 09:34:48;;;;;;;1.90;1.07;;;21.60;54.30;;;;;;5085455;28;20870;-80
2022/02/26 09:37:17;;;;;;;1.80;1.00;;;21.70;54.30;;;;;;5098122;28;20450;-80
2022/02/26 09:39:47;;;;;;;1.43;1.03;;;21.60;54.30;;;;;;5098088;28;20412;-79
2022/02/26 09:42:15;;;;;;;1.47;1.37;;;21.70;54.40;;;;;;5081853;28;20450;-79
2022/02/26 09:44:41;;;;;;;1.80;1.20;;;21.60;54.20;;;;;;5081587;28;20515;-80
2022/02/26 09:47:07;;;;;;;3.33;1.90;;;21.60;54.20;;;;;;5080605;28;20408;-79
2022/02/26 09:49:34;;;;;;;1.40;1.07;;;21.70;54.30;;;;;;5081073;28;20428;-80
2022/02/26 09:52:01;;;;;;;3.87;1.60;;;21.70;54.30;;;;;;5098993;28;20419;-80
2022/02/26 09:54:32;;;;;;;2.00;1.70;;;21.60;54.20;;;;;;5079721;28;20431;-79
2022/02/26 09:57:01;;;;;;;2.70;1.20;;;21.70;54.30;;;;;;5098426;28;20420;-79
2022/02/26 09:59:28;;;;;;;2.50;1.53;;;21.70;54.30;;;;;;5093839;28;20450;-79
2022/02/26 10:02:13;;;;;;;2.10;1.23;;;21.70;54.30;;;;;;5085977;28;20495;-79
2022/02/26 10:04:55;;;;;;;1.77;1.40;;;21.70;54.30;;;;;;5120443;28;20391;-79
2022/02/26 10:07:29;;;;;;;1.73;1.10;;;21.70;54.30;;;;;;5101577;28;20435;-79
2022/02/26 10:09:56;;;;;;;1.53;1.23;;;21.60;54.30;;;;;;5102816;28;20420;-80
2022/02/26 10:12:33;;;;;;;3.23;1.63;;;21.70;54.40;;;;;;5068645;28;20427;-79
2022/02/26 10:15:19;;;;;;;1.87;1.17;;;21.60;54.30;;;;;;5085649;28;20443;-79
2022/02/26 10:18:11;;;;;;;2.50;1.10;;;21.60;54.30;;;;;;5088794;28;20472;-78
2022/02/26 10:20:59;;;;;;;1.57;1.27;;;21.60;54.30;;;;;;5101127;28;20404;-79
2022/02/26 10:23:33;;;;;;;1.73;1.20;;;21.60;54.40;;;;;;5069813;28;20400;-79
2022/02/26 10:26:11;;;;;;;1.53;1.10;;;21.70;54.50;;;;;;5101008;28;20408;-79
2022/02/26 10:28:41;;;;;;;1.30;0.97;;;21.60;54.40;;;;;;5113851;28;20408;-79
2022/02/26 10:31:08;;;;;;;1.60;1.03;;;21.60;54.40;;;;;;5074634;28;20448;-79
2022/02/26 10:33:52;;;;;;;1.30;1.03;;;21.60;54.40;;;;;;5098632;28;20377;-79
2022/02/26 10:36:19;;;;;;;1.20;1.10;;;21.70;54.40;;;;;;5064443;28;20430;-80
2022/02/26 10:38:47;;;;;;;2.53;1.50;;;21.70;54.40;;;;;;5098408;28;20531;-80
2022/02/26 10:41:13;;;;;;;6.80;1.30;;;21.70;54.40;;;;;;5098340;28;20437;-80
2022/02/26 10:43:55;;;;;;;1.43;1.03;;;21.70;54.40;;;;;;5063940;28;20452;-80
2022/02/26 10:46:33;;;;;;;1.50;1.10;;;21.70;54.40;;;;;;5056005;28;20409;-80
2022/02/26 10:49:16;;;;;;;1.60;0.90;;;21.70;54.40;;;;;;5081165;28;20444;-80
2022/02/26 10:51:47;;;;;;;2.07;0.80;;;21.70;54.40;;;;;;5080172;28;20424;-80
2022/02/26 10:54:25;;;;;;;1.60;1.33;;;21.70;54.40;;;;;;5097154;28;20436;-80
2022/02/26 10:56:59;;;;;;;1.80;1.20;;;21.70;54.40;;;;;;5114521;28;20467;-80
2022/02/26 10:59:31;;;;;;;3.20;1.53;;;21.70;54.40;;;;;;5064634;28;20417;-80
2022/02/26 11:02:22;;;;;;;1.30;0.90;;;21.70;54.40;;;;;;5081212;28;20381;-80
2022/02/26 11:04:50;;;;;;;1.73;1.10;;;21.70;54.40;;;;;;5081667;28;20415;-80
2022/02/26 11:07:18;;;;;;;1.40;0.90;;;21.70;54.40;;;;;;5100853;28;20466;-79
2022/02/26 11:09:52;;;;;;;1.70;1.10;;;21.70;54.40;;;;;;5091176;28;20421;-79
2022/02/26 11:12:27;;;;;;;1.60;1.30;;;21.70;54.40;;;;;;5097577;28;20381;-79
2022/02/26 11:15:26;;;;;;;1.83;1.20;;;21.70;54.40;;;;;;5097267;28;20455;-79
2022/02/26 11:17:54;;;;;;;1.40;1.00;;;21.70;54.40;;;;;;5103267;28;20499;-79
2022/02/26 11:20:26;;;;;;;1.40;1.03;;;21.70;54.40;;;;;;5084341;28;20450;-79
2022/02/26 11:22:55;;;;;;;1.50;0.97;;;21.70;54.40;;;;;;5090614;28;20416;-80
2022/02/26 11:25:27;;;;;;;1.53;1.00;;;21.70;54.40;;;;;;5089187;28;20403;-80
2022/02/26 11:27:53;;;;;;;3.43;1.63;;;21.70;54.40;;;;;;5077544;28;20423;-80
2022/02/26 11:30:25;;;;;;;2.70;1.23;;;21.70;54.00;;;;;;5114041;28;20416;-80
2022/02/26 11:32:51;;;;;;;3.20;1.40;;;21.70;53.60;;;;;;5090417;28;20440;-79
2022/02/26 11:35:21;;;;;;;3.27;1.60;;;21.70;53.50;;;;;;5110933;28;20801;-79
2022/02/26 11:37:51;;;;;;;1.40;1.20;;;21.60;53.30;;;;;;5115270;28;20440;-79
2022/02/26 11:40:19;;;;;;;1.30;1.00;;;21.60;53.40;;;;;;5108703;28;20400;-80
2022/02/26 11:42:45;;;;;;;1.73;1.10;;;21.60;53.50;;;;;;5072805;28;20458;-80
2022/02/26 11:45:20;;;;;;;2.23;1.17;;;21.60;53.70;;;;;;5114510;28;20432;-80
2022/02/26 11:48:11;;;;;;;1.80;1.30;;;21.60;53.80;;;;;;5107753;28;20422;-80
2022/02/26 11:50:41;;;;;;;2.40;1.10;;;21.60;53.90;;;;;;5073641;28;20447;-80
2022/02/26 11:53:14;;;;;;;2.40;0.90;;;21.60;53.90;;;;;;5087280;28;20507;-80
2022/02/26 11:55:50;;;;;;;1.37;1.03;;;21.60;54.00;;;;;;5091338;28;20415;-80
2022/02/26 11:58:19;;;;;;;1.50;1.10;;;21.60;54.00;;;;;;5104392;28;20452;-80
2022/02/26 12:00:58;;;;;;;1.60;1.13;;;21.60;54.00;;;;;;5089930;28;20521;-80
2022/02/26 12:03:51;;;;;;;1.73;1.10;;;21.70;54.10;;;;;;5105846;28;20443;-80
2022/02/26 12:06:32;;;;;;;1.20;1.00;;;21.70;54.20;;;;;;5027965;28;20412;-79
2022/02/26 12:09:05;;;;;;;1.77;1.00;;;21.60;54.00;;;;;;5011450;28;20421;-80
2022/02/26 12:11:43;;;;;;;1.77;1.07;;;21.60;54.00;;;;;;5034558;28;20506;-79
2022/02/26 12:14:21;;;;;;;2.90;1.47;;;21.70;54.10;;;;;;5025291;28;20413;-79
2022/02/26 12:16:49;;;;;;;1.30;0.90;;;21.70;54.10;;;;;;5025321;28;20431;-79
2022/02/26 12:19:27;;;;;;;2.00;1.40;;;21.70;54.10;;;;;;5029202;28;20507;-79
2022/02/26 12:22:06;;;;;;;1.87;1.10;;;21.70;54.10;;;;;;5036631;28;20411;-79
2022/02/26 12:24:33;;;;;;;1.27;1.03;;;21.70;54.10;;;;;;5027264;28;20517;-79
2022/02/26 12:26:59;;;;;;;1.40;0.97;;;21.70;54.10;;;;;;5033468;28;20407;-79
2022/02/26 12:30:07;;;;;;;1.30;1.20;;;21.70;54.10;;;;;;5025649;28;20443;-79
2022/02/26 12:32:58;;;;;;;2.83;1.10;;;21.70;54.10;;;;;;4955093;29;20419;-79
2022/02/26 12:35:31;;;;;;;1.77;1.20;;;21.70;54.70;;;;;;4952456;29;20423;-79
2022/02/26 12:37:59;;;;;;;2.50;1.23;;;21.70;54.20;;;;;;4954178;29;20495;-79
2022/02/26 12:40:33;;;;;;;2.07;1.20;;;21.70;54.20;;;;;;4955042;29;20444;-79
2022/02/26 12:43:09;;;;;;;4.27;1.47;;;21.70;54.20;;;;;;4997207;28;20406;-82
2022/02/26 12:45:43;;;;;;;2.30;1.40;;;21.70;54.10;;;;;;5047248;28;20428;-79
2022/02/26 12:48:10;;;;;;;2.43;1.40;;;21.70;54.20;;;;;;5038461;28;20417;-79
2022/02/26 12:50:39;;;;;;;2.20;1.40;;;21.70;54.10;;;;;;5021333;28;20423;-79
2022/02/26 12:53:06;;;;;;;3.00;2.07;;;21.70;54.10;;;;;;5020988;28;20457;-79
2022/02/26 12:55:33;;;;;;;2.27;1.37;;;21.70;54.10;;;;;;5037065;28;20443;-79
2022/02/26 12:57:59;;;;;;;2.30;1.20;;;21.70;54.10;;;;;;5035656;28;20519;-80
2022/02/26 13:00:30;;;;;;;3.20;2.90;;;21.70;54.10;;;;;;5024425;28;20411;-79
2022/02/26 13:03:05;;;;;;;3.93;1.40;;;21.70;54.10;;;;;;5073301;28;20470;-79
2022/02/26 13:05:36;;;;;;;4.87;2.07;;;21.70;54.10;;;;;;5091359;28;20503;-79
2022/02/26 13:08:31;;;;;;;1.90;1.27;;;21.70;54.10;;;;;;5074879;28;20426;-79
2022/02/26 13:11:01;;;;;;;1.90;1.33;;;21.70;54.10;;;;;;5079241;28;20445;-79
2022/02/26 13:13:27;;;;;;;3.23;1.63;;;21.70;54.10;;;;;;5080806;28;20423;-81
2022/02/26 13:15:54;;;;;;;3.27;1.77;;;21.70;54.20;;;;;;5104289;28;20507;-79
2022/02/26 13:18:21;;;;;;;1.80;1.40;;;21.70;54.20;;;;;;5087066;28;20198;-79
2022/02/26 13:20:50;;;;;;;3.17;1.70;;;21.70;54.70;;;;;;5098387;28;20404;-79